Trabzon — 9HA2783 — position and weather

sailwx.info

Track history (hours):
 
Tides and Currents Weather Stations Pressure Air Temp Water Temp Dewpoint Dewpoint Depression Visibility Wind Speed Wind Dir Waves Ship Positions

Trabzon

Last reported at 2014-Oct-31 06:33 UTC. Time now 2014-Oct-31 07:02 UTC.
Position N 52°28' E 004°36'.

Length 229 m; draft 14.5 m.

Type: Cargo ship. MMSI: 215679000.

Date/timePositionNaut miles runAvg speedWind from/ knotsBaromVisibWave heightAir tempDewpointWater temp
2014-Oct-31 06:33N 52°28' E 004°36'0 0.0
2014-Oct-31 05:33N 52°28' E 004°36'0 0.0
2014-Oct-31 04:33N 52°28' E 004°36'0 0.0
2014-Oct-31 03:34N 52°28' E 004°36'0 0.0
2014-Oct-31 02:33N 52°28' E 004°36'0 0.0
2014-Oct-31 01:34N 52°28' E 004°36'0 0.0
2014-Oct-31 00:33N 52°28' E 004°36'0 0.0
2014-Oct-30 23:33N 52°28' E 004°36'0 0.0
2014-Oct-30 22:33N 52°28' E 004°36'0 0.0
2014-Oct-30 21:33N 52°28' E 004°36'2 2.1
2014-Oct-30 20:33N 52°28' E 004°32'7 6.8
2014-Oct-30 19:33N 52°29' E 004°21'8 8.2
2014-Oct-30 18:33N 52°30' E 004°08'9 8.7
2014-Oct-30 17:33N 52°30' E 003°54'4 3.8
2014-Oct-30 16:31N 52°27' E 003°49'0 0.2
2014-Oct-30 15:28N 52°27' E 003°49'0 0.0
2014-Oct-30 14:31N 52°27' E 003°49'0 0.0
2014-Oct-30 13:31N 52°27' E 003°49'0 0.0
2014-Oct-30 12:31N 52°27' E 003°49'0 0.0
2014-Oct-30 11:31N 52°27' E 003°49'0 0.1
2014-Oct-30 09:31N 52°27' E 003°49'0 0.0
2014-Oct-30 06:13N 52°27' E 003°49'0 0.0
2014-Oct-30 05:31N 52°27' E 003°49'0 0.2
2014-Oct-30 04:31N 52°27' E 003°49'0 0.2
2014-Oct-30 03:31N 52°27' E 003°49'0 0.0
2014-Oct-30 02:31N 52°27' E 003°49'0 0.0
2014-Oct-30 01:31N 52°27' E 003°49'0 0.0
2014-Oct-30 00:31N 52°27' E 003°49'0 0.0
2014-Oct-29 23:31N 52°27' E 003°49'0 0.0
2014-Oct-29 22:31N 52°27' E 003°49'0 0.1
2014-Oct-29 21:28N 52°27' E 003°49'0 0.1
2014-Oct-29 20:07N 52°27' E 003°49'0 0.0
2014-Oct-29 16:31N 52°27' E 003°49'0 0.2
2014-Oct-29 15:31N 52°27' E 003°49'0 0.0
2014-Oct-29 14:19N 52°27' E 003°49'0 0.0
2014-Oct-29 12:28N 52°27' E 003°49'0 0.0
2014-Oct-29 11:31N 52°27' E 003°49'0 0.0
2014-Oct-29 10:31N 52°27' E 003°49'0 0.1
2014-Oct-29 09:31N 52°27' E 003°49'0 0.2
2014-Oct-29 08:25N 52°27' E 003°49'0 0.0
2014-Oct-29 03:13N 52°27' E 003°49'0 0.1
2014-Oct-29 02:10N 52°27' E 003°49'0 0.1
2014-Oct-29 01:31N 52°27' E 003°49'0 0.1
2014-Oct-29 00:25N 52°27' E 003°49'0 0.1
2014-Oct-28 23:13N 52°27' E 003°49'0 0.2
2014-Oct-28 22:31N 52°27' E 003°49'0 0.1
2014-Oct-28 21:28N 52°27' E 003°49'0 0.0
2014-Oct-28 19:16N 52°27' E 003°49'0 0.0
2014-Oct-28 18:31N 52°27' E 003°49'0 0.0
2014-Oct-28 17:28N 52°27' E 003°49'0 0.0
2014-Oct-28 16:31N 52°27' E 003°49'0 0.0
2014-Oct-28 15:31N 52°27' E 003°49'0 0.1
2014-Oct-28 14:28N 52°27' E 003°49'0 0.3
2014-Oct-28 13:28N 52°27' E 003°49'0 0.1
2014-Oct-28 12:31N 52°27' E 003°49'0 0.1
2014-Oct-28 11:25N 52°27' E 003°49'0 0.0
2014-Oct-28 10:31N 52°27' E 003°49'0 0.1
2014-Oct-28 08:25N 52°27' E 003°49'0 0.0
2014-Oct-28 07:25N 52°27' E 003°49'0 0.0
2014-Oct-28 06:31N 52°27' E 003°49'0 0.0
2014-Oct-28 05:25N 52°27' E 003°49'0 0.0
2014-Oct-28 04:31N 52°27' E 003°49'0 0.0
2014-Oct-28 03:22N 52°27' E 003°49'0 0.0
2014-Oct-28 02:28N 52°27' E 003°49'0 0.3
2014-Oct-28 01:31N 52°27' E 003°49'0 0.0
2014-Oct-28 00:31N 52°27' E 003°49'0 0.0
2014-Oct-27 23:31N 52°27' E 003°49'0 0.0
2014-Oct-27 22:30N 52°27' E 003°49'0 0.1
2014-Oct-27 21:22N 52°27' E 003°49'0 0.1
2014-Oct-27 18:31N 52°27' E 003°49'0 0.0
2014-Oct-27 17:34N 52°27' E 003°49'0 0.0
2014-Oct-27 15:10N 52°27' E 003°49'0 0.1
2014-Oct-27 13:31N 52°27' E 003°49'0 0.1
2014-Oct-27 12:31N 52°27' E 003°49'0 0.0
2014-Oct-27 11:25N 52°27' E 003°49'0 0.0
2014-Oct-27 10:13N 52°27' E 003°49'0 0.0
2014-Oct-27 09:31N 52°27' E 003°49'0 0.2
2014-Oct-27 08:12N 52°27' E 003°49'0 0.0
2014-Oct-27 02:12N 52°27' E 003°49'0 0.1
2014-Oct-27 01:21N 52°27' E 003°49'0 0.2
2014-Oct-27 00:18N 52°27' E 003°49'0 0.0
2014-Oct-26 23:33N 52°27' E 003°49'0 0.0
2014-Oct-26 22:33N 52°27' E 003°49'0 0.0
2014-Oct-26 21:34N 52°27' E 003°49'0 0.2
2014-Oct-26 20:06N 52°27' E 003°49'0 0.1
2014-Oct-26 19:33N 52°27' E 003°49'0 0.0
2014-Oct-26 13:06N 52°27' E 003°49'0 0.1
2014-Oct-26 11:18N 52°27' E 003°49'0 0.0
2014-Oct-26 09:24N 52°27' E 003°49'0 0.1
2014-Oct-26 08:27N 52°27' E 003°49'0 0.0
2014-Oct-26 00:27N 52°27' E 003°49'0 0.1
2014-Oct-25 23:12N 52°27' E 003°49'0 0.0
2014-Oct-25 22:30N 52°27' E 003°49'0 0.0
2014-Oct-25 21:33N 52°27' E 003°49'0 0.1
2014-Oct-25 20:24N 52°27' E 003°49'0 0.1
2014-Oct-25 16:21N 52°27' E 003°49'0 0.0
2014-Oct-25 10:30N 52°27' E 003°49'0 0.0
2014-Oct-25 09:24N 52°27' E 003°49'0 0.1
2014-Oct-25 04:06N 52°27' E 003°49'0 0.0
2014-Oct-25 03:33N 52°27' E 003°49'0 0.0
2014-Oct-25 02:33N 52°27' E 003°49'0 0.0
2014-Oct-25 00:21N 52°27' E 003°49'0 0.1
2014-Oct-24 22:30N 52°27' E 003°49'0 0.0
2014-Oct-24 20:21N 52°27' E 003°49'0 0.0
2014-Oct-24 10:33N 52°27' E 003°49'0 0.1
2014-Oct-24 09:30N 52°27' E 003°49'0 0.0
2014-Oct-24 01:33N 52°27' E 003°49'0 0.0
2014-Oct-24 00:33N 52°27' E 003°49'0 0.0
2014-Oct-23 23:33N 52°27' E 003°49'0 0.0
2014-Oct-23 08:30N 52°27' E 003°49'0 0.0
2014-Oct-23 07:27N 52°27' E 003°49'0 0.2
2014-Oct-23 06:33N 52°27' E 003°49'0 0.1
2014-Oct-23 05:30N 52°27' E 003°49'0 0.0
2014-Oct-23 00:27N 52°27' E 003°49'0 0.0
2014-Oct-22 18:03N 52°27' E 003°49'0 0.0
2014-Oct-22 01:33N 52°27' E 003°49'0 0.0
2014-Oct-22 00:31N 52°27' E 003°49'1 0.9
2014-Oct-21 23:11N 52°26' E 003°51'1 0.5
2014-Oct-21 20:27N 52°27' E 003°49'0 0.1
2014-Oct-21 19:27N 52°27' E 003°49'0 0.1
2014-Oct-21 18:09N 52°27' E 003°49'0 0.1
2014-Oct-21 17:33N 52°27' E 003°49'0 0.0
2014-Oct-21 16:33N 52°27' E 003°49'0 0.0
2014-Oct-21 15:30N 52°27' E 003°49'  
Track history (hours):
 
Tides and Currents Weather Stations Pressure Air Temp Water Temp Dewpoint Dewpoint Depression Visibility Wind Speed Wind Dir Waves Ship Positions

Trabzon

Last reported at 2014-Oct-31 06:33 UTC. Time now 2014-Oct-31 07:02 UTC.
Position N 52°28' E 004°36'.

Length 229 m; draft 14.5 m.

Type: Cargo ship. MMSI: 215679000.

Date/timePositionNaut miles runAvg speedWind from/ knotsBaromVisibWave heightAir tempDewpointWater temp
2014-Oct-31 06:33N 52°28' E 004°36'0 0.0
2014-Oct-31 05:33N 52°28' E 004°36'0 0.0
2014-Oct-31 04:33N 52°28' E 004°36'0 0.0
2014-Oct-31 03:34N 52°28' E 004°36'0 0.0
2014-Oct-31 02:33N 52°28' E 004°36'0 0.0
2014-Oct-31 01:34N 52°28' E 004°36'0 0.0
2014-Oct-31 00:33N 52°28' E 004°36'0 0.0
2014-Oct-30 23:33N 52°28' E 004°36'0 0.0
2014-Oct-30 22:33N 52°28' E 004°36'0 0.0
2014-Oct-30 21:33N 52°28' E 004°36'2 2.1
2014-Oct-30 20:33N 52°28' E 004°32'7 6.8
2014-Oct-30 19:33N 52°29' E 004°21'8 8.2
2014-Oct-30 18:33N 52°30' E 004°08'9 8.7
2014-Oct-30 17:33N 52°30' E 003°54'4 3.8
2014-Oct-30 16:31N 52°27' E 003°49'0 0.2
2014-Oct-30 15:28N 52°27' E 003°49'0 0.0
2014-Oct-30 14:31N 52°27' E 003°49'0 0.0
2014-Oct-30 13:31N 52°27' E 003°49'0 0.0
2014-Oct-30 12:31N 52°27' E 003°49'0 0.0
2014-Oct-30 11:31N 52°27' E 003°49'0 0.1
2014-Oct-30 09:31N 52°27' E 003°49'0 0.0
2014-Oct-30 06:13N 52°27' E 003°49'0 0.0
2014-Oct-30 05:31N 52°27' E 003°49'0 0.2
2014-Oct-30 04:31N 52°27' E 003°49'0 0.2
2014-Oct-30 03:31N 52°27' E 003°49'0 0.0
2014-Oct-30 02:31N 52°27' E 003°49'0 0.0
2014-Oct-30 01:31N 52°27' E 003°49'0 0.0
2014-Oct-30 00:31N 52°27' E 003°49'0 0.0
2014-Oct-29 23:31N 52°27' E 003°49'0 0.0
2014-Oct-29 22:31N 52°27' E 003°49'0 0.1
2014-Oct-29 21:28N 52°27' E 003°49'0 0.1
2014-Oct-29 20:07N 52°27' E 003°49'0 0.0
2014-Oct-29 16:31N 52°27' E 003°49'0 0.2
2014-Oct-29 15:31N 52°27' E 003°49'0 0.0
2014-Oct-29 14:19N 52°27' E 003°49'0 0.0
2014-Oct-29 12:28N 52°27' E 003°49'0 0.0
2014-Oct-29 11:31N 52°27' E 003°49'0 0.0
2014-Oct-29 10:31N 52°27' E 003°49'0 0.1
2014-Oct-29 09:31N 52°27' E 003°49'0 0.2
2014-Oct-29 08:25N 52°27' E 003°49'0 0.0
2014-Oct-29 03:13N 52°27' E 003°49'0 0.1
2014-Oct-29 02:10N 52°27' E 003°49'0 0.1
2014-Oct-29 01:31N 52°27' E 003°49'0 0.1
2014-Oct-29 00:25N 52°27' E 003°49'0 0.1
2014-Oct-28 23:13N 52°27' E 003°49'0 0.2
2014-Oct-28 22:31N 52°27' E 003°49'0 0.1
2014-Oct-28 21:28N 52°27' E 003°49'0 0.0
2014-Oct-28 19:16N 52°27' E 003°49'0 0.0
2014-Oct-28 18:31N 52°27' E 003°49'0 0.0
2014-Oct-28 17:28N 52°27' E 003°49'0 0.0
2014-Oct-28 16:31N 52°27' E 003°49'0 0.0
2014-Oct-28 15:31N 52°27' E 003°49'0 0.1
2014-Oct-28 14:28N 52°27' E 003°49'0 0.3
2014-Oct-28 13:28N 52°27' E 003°49'0 0.1
2014-Oct-28 12:31N 52°27' E 003°49'0 0.1
2014-Oct-28 11:25N 52°27' E 003°49'0 0.0
2014-Oct-28 10:31N 52°27' E 003°49'0 0.1
2014-Oct-28 08:25N 52°27' E 003°49'0 0.0
2014-Oct-28 07:25N 52°27' E 003°49'0 0.0
2014-Oct-28 06:31N 52°27' E 003°49'0 0.0
2014-Oct-28 05:25N 52°27' E 003°49'0 0.0
2014-Oct-28 04:31N 52°27' E 003°49'0 0.0
2014-Oct-28 03:22N 52°27' E 003°49'0 0.0
2014-Oct-28 02:28N 52°27' E 003°49'0 0.3
2014-Oct-28 01:31N 52°27' E 003°49'0 0.0
2014-Oct-28 00:31N 52°27' E 003°49'0 0.0
2014-Oct-27 23:31N 52°27' E 003°49'0 0.0
2014-Oct-27 22:30N 52°27' E 003°49'0 0.1
2014-Oct-27 21:22N 52°27' E 003°49'0 0.1
2014-Oct-27 18:31N 52°27' E 003°49'0 0.0
2014-Oct-27 17:34N 52°27' E 003°49'0 0.0
2014-Oct-27 15:10N 52°27' E 003°49'0 0.1
2014-Oct-27 13:31N 52°27' E 003°49'0 0.1
2014-Oct-27 12:31N 52°27' E 003°49'0 0.0
2014-Oct-27 11:25N 52°27' E 003°49'0 0.0
2014-Oct-27 10:13N 52°27' E 003°49'0 0.0
2014-Oct-27 09:31N 52°27' E 003°49'0 0.2
2014-Oct-27 08:12N 52°27' E 003°49'0 0.0
2014-Oct-27 02:12N 52°27' E 003°49'0 0.1
2014-Oct-27 01:21N 52°27' E 003°49'0 0.2
2014-Oct-27 00:18N 52°27' E 003°49'0 0.0
2014-Oct-26 23:33N 52°27' E 003°49'0 0.0
2014-Oct-26 22:33N 52°27' E 003°49'0 0.0
2014-Oct-26 21:34N 52°27' E 003°49'0 0.2
2014-Oct-26 20:06N 52°27' E 003°49'0 0.1
2014-Oct-26 19:33N 52°27' E 003°49'0 0.0
2014-Oct-26 13:06N 52°27' E 003°49'0 0.1
2014-Oct-26 11:18N 52°27' E 003°49'0 0.0
2014-Oct-26 09:24N 52°27' E 003°49'0 0.1
2014-Oct-26 08:27N 52°27' E 003°49'0 0.0
2014-Oct-26 00:27N 52°27' E 003°49'0 0.1
2014-Oct-25 23:12N 52°27' E 003°49'0 0.0
2014-Oct-25 22:30N 52°27' E 003°49'0 0.0
2014-Oct-25 21:33N 52°27' E 003°49'0 0.1
2014-Oct-25 20:24N 52°27' E 003°49'0 0.1
2014-Oct-25 16:21N 52°27' E 003°49'0 0.0
2014-Oct-25 10:30N 52°27' E 003°49'0 0.0
2014-Oct-25 09:24N 52°27' E 003°49'0 0.1
2014-Oct-25 04:06N 52°27' E 003°49'0 0.0
2014-Oct-25 03:33N 52°27' E 003°49'0 0.0
2014-Oct-25 02:33N 52°27' E 003°49'0 0.0
2014-Oct-25 00:21N 52°27' E 003°49'0 0.1
2014-Oct-24 22:30N 52°27' E 003°49'0 0.0
2014-Oct-24 20:21N 52°27' E 003°49'0 0.0
2014-Oct-24 10:33N 52°27' E 003°49'0 0.1
2014-Oct-24 09:30N 52°27' E 003°49'0 0.0
2014-Oct-24 01:33N 52°27' E 003°49'0 0.0
2014-Oct-24 00:33N 52°27' E 003°49'0 0.0
2014-Oct-23 23:33N 52°27' E 003°49'0 0.0
2014-Oct-23 08:30N 52°27' E 003°49'0 0.0
2014-Oct-23 07:27N 52°27' E 003°49'0 0.2
2014-Oct-23 06:33N 52°27' E 003°49'0 0.1
2014-Oct-23 05:30N 52°27' E 003°49'0 0.0
2014-Oct-23 00:27N 52°27' E 003°49'0 0.0
2014-Oct-22 18:03N 52°27' E 003°49'0 0.0
2014-Oct-22 01:33N 52°27' E 003°49'0 0.0
2014-Oct-22 00:31N 52°27' E 003°49'1 0.9
2014-Oct-21 23:11N 52°26' E 003°51'1 0.5
2014-Oct-21 20:27N 52°27' E 003°49'0 0.1
2014-Oct-21 19:27N 52°27' E 003°49'0 0.1
2014-Oct-21 18:09N 52°27' E 003°49'0 0.1
2014-Oct-21 17:33N 52°27' E 003°49'0 0.0
2014-Oct-21 16:33N 52°27' E 003°49'0 0.0
2014-Oct-21 15:30N 52°27' E 003°49'  

Dump ship's entire track history